sensor_id;sensor_type;location;lat;lon;timestamp;temperature;humidity
12981;DHT22;6555;50.468;8.480;2022-09-20T00:02:57;13.60;56.90
12981;DHT22;6555;50.468;8.480;2022-09-20T00:08:00;13.60;57.60
12981;DHT22;6555;50.468;8.480;2022-09-20T00:13:06;13.50;57.00
12981;DHT22;6555;50.468;8.480;2022-09-20T00:18:09;13.40;56.90
12981;DHT22;6555;50.468;8.480;2022-09-20T00:23:13;13.40;56.90
12981;DHT22;6555;50.468;8.480;2022-09-20T00:28:17;13.30;56.90
12981;DHT22;6555;50.468;8.480;2022-09-20T00:33:21;13.30;57.10
12981;DHT22;6555;50.468;8.480;2022-09-20T00:38:24;13.20;57.00
12981;DHT22;6555;50.468;8.480;2022-09-20T00:43:36;13.20;57.00
12981;DHT22;6555;50.468;8.480;2022-09-20T00:48:39;13.20;57.20
12981;DHT22;6555;50.468;8.480;2022-09-20T00:53:46;13.10;57.10
12981;DHT22;6555;50.468;8.480;2022-09-20T00:58:56;13.00;57.10
12981;DHT22;6555;50.468;8.480;2022-09-20T01:04:02;13.00;57.10
12981;DHT22;6555;50.468;8.480;2022-09-20T01:09:06;13.00;57.20
12981;DHT22;6555;50.468;8.480;2022-09-20T01:14:12;12.90;57.20
12981;DHT22;6555;50.468;8.480;2022-09-20T01:19:24;12.90;57.30
12981;DHT22;6555;50.468;8.480;2022-09-20T01:24:36;12.80;57.40
12981;DHT22;6555;50.468;8.480;2022-09-20T01:29:52;12.80;57.50
12981;DHT22;6555;50.468;8.480;2022-09-20T01:35:00;12.70;57.70
12981;DHT22;6555;50.468;8.480;2022-09-20T01:40:08;12.70;58.20
12981;DHT22;6555;50.468;8.480;2022-09-20T01:45:21;12.60;57.70
12981;DHT22;6555;50.468;8.480;2022-09-20T01:50:32;12.60;57.80
12981;DHT22;6555;50.468;8.480;2022-09-20T01:56:14;12.60;57.90
12981;DHT22;6555;50.468;8.480;2022-09-20T02:01:36;12.60;58.00
12981;DHT22;6555;50.468;8.480;2022-09-20T02:06:57;12.60;57.90
12981;DHT22;6555;50.468;8.480;2022-09-20T02:12:28;12.60;57.80
12981;DHT22;6555;50.468;8.480;2022-09-20T02:17:45;12.60;57.60
12981;DHT22;6555;50.468;8.480;2022-09-20T02:23:10;12.60;57.60
12981;DHT22;6555;50.468;8.480;2022-09-20T02:28:24;12.50;57.70
12981;DHT22;6555;50.468;8.480;2022-09-20T02:39:09;12.50;57.90
12981;DHT22;6555;50.468;8.480;2022-09-20T02:44:19;12.50;57.70
12981;DHT22;6555;50.468;8.480;2022-09-20T02:49:31;12.40;57.50
12981;DHT22;6555;50.468;8.480;2022-09-20T02:54:44;12.40;57.60
12981;DHT22;6555;50.468;8.480;2022-09-20T02:59:55;12.30;57.60
12981;DHT22;6555;50.468;8.480;2022-09-20T03:05:12;12.30;57.60
12981;DHT22;6555;50.468;8.480;2022-09-20T03:10:24;12.20;57.60
12981;DHT22;6555;50.468;8.480;2022-09-20T03:15:35;12.20;57.60
12981;DHT22;6555;50.468;8.480;2022-09-20T03:20:53;12.20;57.70
12981;DHT22;6555;50.468;8.480;2022-09-20T03:26:03;12.10;57.80
12981;DHT22;6555;50.468;8.480;2022-09-20T03:31:22;12.10;57.70
12981;DHT22;6555;50.468;8.480;2022-09-20T03:36:40;12.10;57.80
12981;DHT22;6555;50.468;8.480;2022-09-20T03:42:03;12.10;57.80
12981;DHT22;6555;50.468;8.480;2022-09-20T03:47:25;12.10;57.80
12981;DHT22;6555;50.468;8.480;2022-09-20T03:52:56;12.00;57.70
12981;DHT22;6555;50.468;8.480;2022-09-20T03:58:27;11.90;57.80
12981;DHT22;6555;50.468;8.480;2022-09-20T04:03:41;11.90;57.90
12981;DHT22;6555;50.468;8.480;2022-09-20T04:09:24;11.90;57.70
12981;DHT22;6555;50.468;8.480;2022-09-20T04:14:34;11.80;57.90
12981;DHT22;6555;50.468;8.480;2022-09-20T04:19:45;11.80;57.80
12981;DHT22;6555;50.468;8.480;2022-09-20T04:24:54;11.80;57.90
12981;DHT22;6555;50.468;8.480;2022-09-20T04:30:00;11.80;57.90
12981;DHT22;6555;50.468;8.480;2022-09-20T04:35:13;11.80;58.00
12981;DHT22;6555;50.468;8.480;2022-09-20T04:40:54;11.80;58.20
12981;DHT22;6555;50.468;8.480;2022-09-20T04:46:34;11.80;58.20
12981;DHT22;6555;50.468;8.480;2022-09-20T04:52:21;11.80;58.10
12981;DHT22;6555;50.468;8.480;2022-09-20T04:57:54;11.70;58.10
12981;DHT22;6555;50.468;8.480;2022-09-20T05:03:31;11.70;58.10
12981;DHT22;6555;50.468;8.480;2022-09-20T05:09:07;11.60;58.20
12981;DHT22;6555;50.468;8.480;2022-09-20T05:14:27;11.60;58.20
12981;DHT22;6555;50.468;8.480;2022-09-20T05:19:45;11.60;58.20
12981;DHT22;6555;50.468;8.480;2022-09-20T05:25:10;11.60;57.90
12981;DHT22;6555;50.468;8.480;2022-09-20T05:30:24;11.60;58.10
12981;DHT22;6555;50.468;8.480;2022-09-20T05:35:37;11.60;58.00
12981;DHT22;6555;50.468;8.480;2022-09-20T05:41:02;11.60;58.20
12981;DHT22;6555;50.468;8.480;2022-09-20T05:46:15;11.50;58.30
12981;DHT22;6555;50.468;8.480;2022-09-20T05:51:30;11.50;58.30
12981;DHT22;6555;50.468;8.480;2022-09-20T05:56:41;11.50;58.30
12981;DHT22;6555;50.468;8.480;2022-09-20T06:01:58;11.50;58.30
12981;DHT22;6555;50.468;8.480;2022-09-20T06:07:07;11.50;58.60
12981;DHT22;6555;50.468;8.480;2022-09-20T06:12:22;11.50;58.50
12981;DHT22;6555;50.468;8.480;2022-09-20T06:17:33;11.60;58.80
12981;DHT22;6555;50.468;8.480;2022-09-20T06:22:41;11.60;58.80
12981;DHT22;6555;50.468;8.480;2022-09-20T06:27:50;11.60;58.80
12981;DHT22;6555;50.468;8.480;2022-09-20T06:32:57;11.70;59.00
12981;DHT22;6555;50.468;8.480;2022-09-20T06:38:10;11.70;59.10
12981;DHT22;6555;50.468;8.480;2022-09-20T06:43:35;11.90;59.50
12981;DHT22;6555;50.468;8.480;2022-09-20T06:48:42;12.00;59.20
12981;DHT22;6555;50.468;8.480;2022-09-20T06:53:45;12.00;59.50
12981;DHT22;6555;50.468;8.480;2022-09-20T06:58:48;12.10;59.60
12981;DHT22;6555;50.468;8.480;2022-09-20T07:03:54;12.30;59.80
12981;DHT22;6555;50.468;8.480;2022-09-20T07:08:57;12.40;59.90
12981;DHT22;6555;50.468;8.480;2022-09-20T07:14:00;12.50;59.70
12981;DHT22;6555;50.468;8.480;2022-09-20T07:19:04;12.60;59.70
12981;DHT22;6555;50.468;8.480;2022-09-20T07:24:07;12.70;59.80
12981;DHT22;6555;50.468;8.480;2022-09-20T07:29:10;12.80;59.80
12981;DHT22;6555;50.468;8.480;2022-09-20T07:34:14;13.00;60.00
12981;DHT22;6555;50.468;8.480;2022-09-20T07:39:18;13.10;60.20
12981;DHT22;6555;50.468;8.480;2022-09-20T07:44:21;13.20;60.10
12981;DHT22;6555;50.468;8.480;2022-09-20T07:49:28;13.50;60.40
12981;DHT22;6555;50.468;8.480;2022-09-20T07:54:31;13.70;60.40
12981;DHT22;6555;50.468;8.480;2022-09-20T07:59:34;13.90;60.20
12981;DHT22;6555;50.468;8.480;2022-09-20T08:04:38;14.10;60.10
12981;DHT22;6555;50.468;8.480;2022-09-20T08:09:41;14.30;60.00
12981;DHT22;6555;50.468;8.480;2022-09-20T08:14:44;14.40;59.90
12981;DHT22;6555;50.468;8.480;2022-09-20T08:19:48;14.60;59.80
12981;DHT22;6555;50.468;8.480;2022-09-20T08:24:53;14.70;59.70
12981;DHT22;6555;50.468;8.480;2022-09-20T08:29:56;14.80;59.40
12981;DHT22;6555;50.468;8.480;2022-09-20T08:35:03;14.80;59.10
12981;DHT22;6555;50.468;8.480;2022-09-20T08:40:08;14.90;59.30
12981;DHT22;6555;50.468;8.480;2022-09-20T08:45:14;14.90;59.20
12981;DHT22;6555;50.468;8.480;2022-09-20T08:50:37;14.90;59.20
12981;DHT22;6555;50.468;8.480;2022-09-20T08:55:40;15.00;59.30
12981;DHT22;6555;50.468;8.480;2022-09-20T09:00:45;15.10;59.50
12981;DHT22;6555;50.468;8.480;2022-09-20T09:05:51;15.30;59.80
12981;DHT22;6555;50.468;8.480;2022-09-20T09:10:56;15.40;59.50
12981;DHT22;6555;50.468;8.480;2022-09-20T09:16:01;15.60;59.50
12981;DHT22;6555;50.468;8.480;2022-09-20T09:21:16;15.70;59.40
12981;DHT22;6555;50.468;8.480;2022-09-20T09:26:22;15.80;58.90
12981;DHT22;6555;50.468;8.480;2022-09-20T09:31:26;15.90;59.10
12981;DHT22;6555;50.468;8.480;2022-09-20T09:36:30;16.00;59.10
12981;DHT22;6555;50.468;8.480;2022-09-20T09:41:34;16.10;59.10
12981;DHT22;6555;50.468;8.480;2022-09-20T09:46:38;16.30;59.30
12981;DHT22;6555;50.468;8.480;2022-09-20T09:51:59;16.40;58.80
12981;DHT22;6555;50.468;8.480;2022-09-20T09:57:14;16.50;57.70
12981;DHT22;6555;50.468;8.480;2022-09-20T10:02:42;16.50;57.70
12981;DHT22;6555;50.468;8.480;2022-09-20T10:07:55;16.50;57.20
12981;DHT22;6555;50.468;8.480;2022-09-20T10:13:10;16.50;57.30
12981;DHT22;6555;50.468;8.480;2022-09-20T10:18:29;16.40;57.30
12981;DHT22;6555;50.468;8.480;2022-09-20T10:23:42;16.50;57.60
12981;DHT22;6555;50.468;8.480;2022-09-20T10:29:11;16.50;57.90
12981;DHT22;6555;50.468;8.480;2022-09-20T10:34:36;16.70;58.10
12981;DHT22;6555;50.468;8.480;2022-09-20T10:39:43;16.90;57.50
12981;DHT22;6555;50.468;8.480;2022-09-20T10:44:59;17.00;57.40
12981;DHT22;6555;50.468;8.480;2022-09-20T10:50:11;17.20;57.10
12981;DHT22;6555;50.468;8.480;2022-09-20T10:55:29;17.30;57.30
12981;DHT22;6555;50.468;8.480;2022-09-20T11:00:42;17.40;55.80
12981;DHT22;6555;50.468;8.480;2022-09-20T11:06:00;17.40;56.00
12981;DHT22;6555;50.468;8.480;2022-09-20T11:11:10;17.60;56.40
12981;DHT22;6555;50.468;8.480;2022-09-20T11:16:16;17.80;56.70
12981;DHT22;6555;50.468;8.480;2022-09-20T11:21:27;18.00;56.90
12981;DHT22;6555;50.468;8.480;2022-09-20T11:26:38;18.20;56.40
12981;DHT22;6555;50.468;8.480;2022-09-20T11:31:45;18.40;56.20
12981;DHT22;6555;50.468;8.480;2022-09-20T11:36:53;18.50;56.10
12981;DHT22;6555;50.468;8.480;2022-09-20T11:42:02;18.60;55.60
12981;DHT22;6555;50.468;8.480;2022-09-20T11:47:11;18.60;55.10
12981;DHT22;6555;50.468;8.480;2022-09-20T11:52:49;18.50;54.90
12981;DHT22;6555;50.468;8.480;2022-09-20T11:58:06;18.50;55.00
12981;DHT22;6555;50.468;8.480;2022-09-20T12:03:23;18.60;54.60
12981;DHT22;6555;50.468;8.480;2022-09-20T12:08:29;18.70;54.70
12981;DHT22;6555;50.468;8.480;2022-09-20T12:13:37;18.80;55.20
12981;DHT22;6555;50.468;8.480;2022-09-20T12:19:01;19.00;54.80
12981;DHT22;6555;50.468;8.480;2022-09-20T12:24:19;19.20;55.10
12981;DHT22;6555;50.468;8.480;2022-09-20T12:30:04;19.30;54.60
12981;DHT22;6555;50.468;8.480;2022-09-20T12:41:11;19.80;53.60
12981;DHT22;6555;50.468;8.480;2022-09-20T12:46:23;20.00;54.20
12981;DHT22;6555;50.468;8.480;2022-09-20T12:51:30;20.20;54.20
12981;DHT22;6555;50.468;8.480;2022-09-20T12:56:51;20.40;53.90
12981;DHT22;6555;50.468;8.480;2022-09-20T13:07:42;20.70;53.20
12981;DHT22;6555;50.468;8.480;2022-09-20T13:12:49;20.70;52.90
12981;DHT22;6555;50.468;8.480;2022-09-20T13:17:59;20.70;52.90
12981;DHT22;6555;50.468;8.480;2022-09-20T13:23:03;20.70;52.50
12981;DHT22;6555;50.468;8.480;2022-09-20T13:28:09;20.60;52.70
12981;DHT22;6555;50.468;8.480;2022-09-20T13:33:24;20.80;52.90
12981;DHT22;6555;50.468;8.480;2022-09-20T13:38:29;20.90;52.70
12981;DHT22;6555;50.468;8.480;2022-09-20T13:43:36;21.00;52.30
12981;DHT22;6555;50.468;8.480;2022-09-20T13:48:45;21.00;50.60
12981;DHT22;6555;50.468;8.480;2022-09-20T13:53:48;20.90;50.90
12981;DHT22;6555;50.468;8.480;2022-09-20T13:58:51;20.70;51.00
12981;DHT22;6555;50.468;8.480;2022-09-20T14:04:00;20.50;50.50
12981;DHT22;6555;50.468;8.480;2022-09-20T14:09:06;20.30;50.70
12981;DHT22;6555;50.468;8.480;2022-09-20T14:14:13;20.20;51.00
12981;DHT22;6555;50.468;8.480;2022-09-20T14:19:27;20.20;51.40
12981;DHT22;6555;50.468;8.480;2022-09-20T14:24:33;20.20;50.90
12981;DHT22;6555;50.468;8.480;2022-09-20T14:29:39;20.30;51.40
12981;DHT22;6555;50.468;8.480;2022-09-20T14:34:45;20.40;51.40
12981;DHT22;6555;50.468;8.480;2022-09-20T14:39:51;20.60;51.40
12981;DHT22;6555;50.468;8.480;2022-09-20T14:44:55;20.60;51.00
12981;DHT22;6555;50.468;8.480;2022-09-20T14:49:59;20.60;51.00
12981;DHT22;6555;50.468;8.480;2022-09-20T14:55:20;20.60;50.80
12981;DHT22;6555;50.468;8.480;2022-09-20T15:00:29;20.60;50.50
12981;DHT22;6555;50.468;8.480;2022-09-20T15:05:34;20.60;51.10
12981;DHT22;6555;50.468;8.480;2022-09-20T15:10:37;20.60;50.40
12981;DHT22;6555;50.468;8.480;2022-09-20T15:15:40;20.50;50.40
12981;DHT22;6555;50.468;8.480;2022-09-20T15:20:46;20.30;50.40
12981;DHT22;6555;50.468;8.480;2022-09-20T15:25:50;20.20;50.30
12981;DHT22;6555;50.468;8.480;2022-09-20T15:30:53;19.90;50.30
12981;DHT22;6555;50.468;8.480;2022-09-20T15:35:59;19.70;50.50
12981;DHT22;6555;50.468;8.480;2022-09-20T15:41:02;19.50;50.70
12981;DHT22;6555;50.468;8.480;2022-09-20T15:46:16;19.40;51.00
12981;DHT22;6555;50.468;8.480;2022-09-20T15:51:21;19.40;51.10
12981;DHT22;6555;50.468;8.480;2022-09-20T15:56:26;19.30;51.70
12981;DHT22;6555;50.468;8.480;2022-09-20T16:01:30;19.30;51.60
12981;DHT22;6555;50.468;8.480;2022-09-20T16:06:35;19.30;51.40
12981;DHT22;6555;50.468;8.480;2022-09-20T16:11:39;19.10;51.10
12981;DHT22;6555;50.468;8.480;2022-09-20T16:16:42;18.90;51.20
12981;DHT22;6555;50.468;8.480;2022-09-20T16:21:47;18.60;51.10
12981;DHT22;6555;50.468;8.480;2022-09-20T16:26:59;18.40;51.30
12981;DHT22;6555;50.468;8.480;2022-09-20T16:32:02;18.20;51.60
12981;DHT22;6555;50.468;8.480;2022-09-20T16:37:10;18.00;51.80
12981;DHT22;6555;50.468;8.480;2022-09-20T16:42:16;17.80;52.00
12981;DHT22;6555;50.468;8.480;2022-09-20T16:47:19;17.70;52.10
12981;DHT22;6555;50.468;8.480;2022-09-20T16:52:25;17.60;52.30
12981;DHT22;6555;50.468;8.480;2022-09-20T16:57:28;17.50;52.50
12981;DHT22;6555;50.468;8.480;2022-09-20T17:02:31;17.50;52.70
12981;DHT22;6555;50.468;8.480;2022-09-20T17:07:35;17.40;52.60
12981;DHT22;6555;50.468;8.480;2022-09-20T17:12:38;17.40;52.60
12981;DHT22;6555;50.468;8.480;2022-09-20T17:17:44;17.30;52.60
12981;DHT22;6555;50.468;8.480;2022-09-20T17:22:48;17.20;52.60
12981;DHT22;6555;50.468;8.480;2022-09-20T17:27:51;17.10;52.80
12981;DHT22;6555;50.468;8.480;2022-09-20T17:32:56;17.00;52.70
12981;DHT22;6555;50.468;8.480;2022-09-20T17:38:00;16.90;53.00
12981;DHT22;6555;50.468;8.480;2022-09-20T17:43:03;16.80;52.80
12981;DHT22;6555;50.468;8.480;2022-09-20T17:48:06;16.80;52.70
12981;DHT22;6555;50.468;8.480;2022-09-20T17:53:10;16.70;52.80
12981;DHT22;6555;50.468;8.480;2022-09-20T17:58:13;16.60;52.80
12981;DHT22;6555;50.468;8.480;2022-09-20T18:03:16;16.50;53.10
12981;DHT22;6555;50.468;8.480;2022-09-20T18:08:21;16.40;53.10
12981;DHT22;6555;50.468;8.480;2022-09-20T18:13:24;16.40;53.20
12981;DHT22;6555;50.468;8.480;2022-09-20T18:18:27;16.40;53.20
12981;DHT22;6555;50.468;8.480;2022-09-20T18:23:32;16.30;53.30
12981;DHT22;6555;50.468;8.480;2022-09-20T18:28:35;16.30;53.90
12981;DHT22;6555;50.468;8.480;2022-09-20T18:33:38;16.20;53.10
12981;DHT22;6555;50.468;8.480;2022-09-20T18:38:44;16.10;53.20
12981;DHT22;6555;50.468;8.480;2022-09-20T18:43:47;16.10;53.40
12981;DHT22;6555;50.468;8.480;2022-09-20T18:48:51;16.00;53.20
12981;DHT22;6555;50.468;8.480;2022-09-20T18:53:56;16.00;53.20
12981;DHT22;6555;50.468;8.480;2022-09-20T18:59:01;15.90;53.30
12981;DHT22;6555;50.468;8.480;2022-09-20T19:04:12;15.80;53.20
12981;DHT22;6555;50.468;8.480;2022-09-20T19:09:27;15.70;53.40
12981;DHT22;6555;50.468;8.480;2022-09-20T19:14:40;15.70;53.60
12981;DHT22;6555;50.468;8.480;2022-09-20T19:19:49;15.70;53.70
12981;DHT22;6555;50.468;8.480;2022-09-20T19:25:11;15.60;53.50
12981;DHT22;6555;50.468;8.480;2022-09-20T19:30:17;15.50;53.60
12981;DHT22;6555;50.468;8.480;2022-09-20T19:35:25;15.50;53.50
12981;DHT22;6555;50.468;8.480;2022-09-20T19:40:40;15.40;53.80
12981;DHT22;6555;50.468;8.480;2022-09-20T19:45:50;15.40;54.00
12981;DHT22;6555;50.468;8.480;2022-09-20T19:50:56;15.30;53.80
12981;DHT22;6555;50.468;8.480;2022-09-20T19:56:10;15.30;53.80
12981;DHT22;6555;50.468;8.480;2022-09-20T20:01:15;15.30;54.00
12981;DHT22;6555;50.468;8.480;2022-09-20T20:06:23;15.30;53.90
12981;DHT22;6555;50.468;8.480;2022-09-20T20:11:37;15.20;54.00
12981;DHT22;6555;50.468;8.480;2022-09-20T20:16:54;15.10;54.20
12981;DHT22;6555;50.468;8.480;2022-09-20T20:22:07;15.10;54.20
12981;DHT22;6555;50.468;8.480;2022-09-20T20:27:15;15.10;54.30
12981;DHT22;6555;50.468;8.480;2022-09-20T20:32:18;15.10;54.20
12981;DHT22;6555;50.468;8.480;2022-09-20T20:37:21;15.10;54.20
12981;DHT22;6555;50.468;8.480;2022-09-20T20:42:28;15.10;54.20
12981;DHT22;6555;50.468;8.480;2022-09-20T20:47:31;15.00;54.30
12981;DHT22;6555;50.468;8.480;2022-09-20T20:52:34;15.00;54.20
12981;DHT22;6555;50.468;8.480;2022-09-20T20:57:38;15.00;54.20
12981;DHT22;6555;50.468;8.480;2022-09-20T21:02:41;15.00;54.30
12981;DHT22;6555;50.468;8.480;2022-09-20T21:07:49;14.90;54.40
12981;DHT22;6555;50.468;8.480;2022-09-20T21:12:54;14.90;54.30
12981;DHT22;6555;50.468;8.480;2022-09-20T21:17:57;14.90;54.30
12981;DHT22;6555;50.468;8.480;2022-09-20T21:23:00;14.80;54.20
12981;DHT22;6555;50.468;8.480;2022-09-20T21:28:04;14.80;54.20
12981;DHT22;6555;50.468;8.480;2022-09-20T21:33:07;14.70;54.30
12981;DHT22;6555;50.468;8.480;2022-09-20T21:38:10;14.70;54.10
12981;DHT22;6555;50.468;8.480;2022-09-20T21:43:14;14.60;54.00
12981;DHT22;6555;50.468;8.480;2022-09-20T21:48:17;14.50;54.10
12981;DHT22;6555;50.468;8.480;2022-09-20T21:53:20;14.40;53.90
12981;DHT22;6555;50.468;8.480;2022-09-20T21:58:25;14.30;53.90
12981;DHT22;6555;50.468;8.480;2022-09-20T22:03:35;14.20;53.80
12981;DHT22;6555;50.468;8.480;2022-09-20T22:08:41;14.00;54.00
12981;DHT22;6555;50.468;8.480;2022-09-20T22:13:50;13.90;53.90
12981;DHT22;6555;50.468;8.480;2022-09-20T22:18:53;13.70;53.90
12981;DHT22;6555;50.468;8.480;2022-09-20T22:23:57;13.70;53.90
12981;DHT22;6555;50.468;8.480;2022-09-20T22:29:03;13.50;54.00
12981;DHT22;6555;50.468;8.480;2022-09-20T22:34:07;13.50;54.20
12981;DHT22;6555;50.468;8.480;2022-09-20T22:39:11;13.50;54.20
12981;DHT22;6555;50.468;8.480;2022-09-20T22:44:15;13.40;54.20
12981;DHT22;6555;50.468;8.480;2022-09-20T22:49:18;13.30;54.10
12981;DHT22;6555;50.468;8.480;2022-09-20T22:54:21;13.30;54.20
12981;DHT22;6555;50.468;8.480;2022-09-20T22:59:25;13.20;54.10
12981;DHT22;6555;50.468;8.480;2022-09-20T23:04:28;13.20;54.10
12981;DHT22;6555;50.468;8.480;2022-09-20T23:09:31;13.10;54.10
12981;DHT22;6555;50.468;8.480;2022-09-20T23:14:35;13.10;54.10
12981;DHT22;6555;50.468;8.480;2022-09-20T23:19:39;13.00;54.00
12981;DHT22;6555;50.468;8.480;2022-09-20T23:24:41;13.00;54.00
12981;DHT22;6555;50.468;8.480;2022-09-20T23:29:46;12.90;54.00
12981;DHT22;6555;50.468;8.480;2022-09-20T23:34:49;12.80;54.00
12981;DHT22;6555;50.468;8.480;2022-09-20T23:39:52;12.70;54.00
12981;DHT22;6555;50.468;8.480;2022-09-20T23:44:56;12.70;54.00
12981;DHT22;6555;50.468;8.480;2022-09-20T23:49:59;12.60;54.00
12981;DHT22;6555;50.468;8.480;2022-09-20T23:55:03;12.60;54.00
